createdAt,value
2019-05-03T00:02:27.204Z,85.86
2019-05-03T00:05:23.066Z,87.28
2019-05-03T00:07:53.951Z,85.90
2019-05-03T00:10:22.926Z,86.68
2019-05-03T00:12:52.785Z,86.04
2019-05-03T00:15:35.131Z,85.38
2019-05-03T00:18:03.904Z,85.47
2019-05-03T00:20:32.726Z,84.18
2019-05-03T00:23:02.960Z,85.18
2019-05-03T00:25:32.615Z,85.18
2019-05-03T00:28:01.950Z,85.05
2019-05-03T00:30:31.999Z,85.43
2019-05-03T00:33:02.875Z,85.49
2019-05-03T00:36:03.352Z,84.27
2019-05-03T00:38:32.530Z,84.60
2019-05-03T00:41:01.838Z,85.49
2019-05-03T00:43:31.784Z,84.61
2019-05-03T00:46:02.044Z,85.84
2019-05-03T00:48:32.586Z,85.30
2019-05-03T00:51:02.404Z,84.90
2019-05-03T00:53:31.877Z,85.92
2019-05-03T00:56:01.775Z,86.28
2019-05-03T00:58:31.799Z,85.60
2019-05-03T01:01:02.484Z,85.18
2019-05-03T01:03:32.546Z,84.95
2019-05-03T01:06:02.268Z,83.86
2019-05-03T01:08:32.633Z,83.86
2019-05-03T01:11:02.109Z,84.80
2019-05-03T01:13:32.078Z,85.24
2019-05-03T01:16:06.062Z,85.08
2019-05-03T01:18:34.714Z,84.60
2019-05-03T01:21:03.441Z,85.60
2019-05-03T01:23:32.558Z,84.41
2019-05-03T01:26:02.493Z,84.30
2019-05-03T01:28:32.312Z,85.21
2019-05-03T01:31:02.566Z,84.73
2019-05-03T01:33:32.167Z,84.46
2019-05-03T01:36:02.762Z,83.92
2019-05-03T01:38:32.000Z,83.40
2019-05-03T01:41:01.701Z,84.33
2019-05-03T01:43:31.764Z,84.03
2019-05-03T01:46:02.532Z,84.66
2019-05-03T01:48:48.878Z,84.46
2019-05-03T01:51:32.698Z,85.44
2019-05-03T01:54:01.760Z,86.19
2019-05-03T01:56:31.642Z,86.23
2019-05-03T01:59:01.870Z,85.91
2019-05-03T02:01:44.040Z,85.59
2019-05-03T02:04:18.132Z,86.29
2019-05-03T02:06:46.354Z,85.71
2019-05-03T02:09:14.952Z,85.71
2019-05-03T02:11:43.476Z,85.83
2019-05-03T02:14:12.465Z,86.25
2019-05-03T02:16:42.011Z,86.18
2019-05-03T02:19:12.497Z,86.34
2019-05-03T02:21:41.647Z,86.03
2019-05-03T02:24:11.801Z,84.66
2019-05-03T02:26:42.337Z,86.14
2019-05-03T02:29:12.568Z,85.03
2019-05-03T02:31:43.633Z,84.53
2019-05-03T02:34:12.532Z,84.75
2019-05-03T02:36:42.750Z,84.74
2019-05-03T02:39:13.917Z,84.94
2019-05-03T02:41:45.220Z,84.15
2019-05-03T02:44:15.885Z,84.33
2019-05-03T02:47:05.532Z,85.54
2019-05-03T02:49:40.931Z,84.93
2019-05-03T02:52:29.376Z,84.78
2019-05-03T02:54:58.129Z,84.92
2019-05-03T02:57:26.982Z,85.11
2019-05-03T02:59:55.502Z,84.40
2019-05-03T03:02:26.375Z,84.62
2019-05-03T03:04:56.419Z,82.77
2019-05-03T03:07:26.106Z,81.11
2019-05-03T03:09:58.033Z,82.85
2019-05-03T03:12:28.588Z,83.44
2019-05-03T03:15:00.030Z,81.71
2019-05-03T03:17:36.157Z,83.25
2019-05-03T03:20:07.185Z,84.24
2019-05-03T03:22:41.336Z,84.59
2019-05-03T03:25:17.497Z,84.97
2019-05-03T03:27:49.293Z,85.73
2019-05-03T03:30:39.485Z,85.26
2019-05-03T03:33:11.846Z,85.46
2019-05-03T03:35:41.507Z,85.13
2019-05-03T03:38:10.244Z,84.77
2019-05-03T03:40:39.380Z,85.61
2019-05-03T03:43:09.060Z,83.23
2019-05-03T03:45:39.580Z,84.54
2019-05-03T03:48:09.796Z,83.51
2019-05-03T03:50:40.364Z,84.36
2019-05-03T03:53:10.469Z,84.05
2019-05-03T03:55:41.332Z,81.62
2019-05-03T03:58:10.056Z,77.52
2019-05-03T04:00:38.902Z,78.57
2019-05-03T04:03:07.695Z,78.25
2019-05-03T04:05:36.404Z,78.03
2019-05-03T04:08:05.804Z,76.83
2019-05-03T04:10:35.251Z,77.65
2019-05-03T04:13:06.878Z,78.19
2019-05-03T04:15:55.922Z,78.77
2019-05-03T04:18:29.009Z,79.44
2019-05-03T04:20:57.543Z,81.22
2019-05-03T04:23:30.001Z,80.02
2019-05-03T04:25:59.718Z,80.05
2019-05-03T04:28:28.441Z,80.84
2019-05-03T04:30:57.212Z,80.51
2019-05-03T04:33:26.957Z,80.75
2019-05-03T04:35:56.098Z,80.10
2019-05-03T04:38:25.567Z,80.50
2019-05-03T04:40:56.203Z,80.74
2019-05-03T04:43:26.426Z,81.44
2019-05-03T04:46:16.582Z,80.29
2019-05-03T04:48:45.309Z,80.47
2019-05-03T04:51:16.517Z,81.27
2019-05-03T04:53:49.107Z,80.32
2019-05-03T04:56:17.751Z,80.96
2019-05-03T04:58:46.576Z,79.64
2019-05-03T05:01:15.936Z,80.12
2019-05-03T05:03:45.680Z,79.64
2019-05-03T05:06:15.373Z,80.70
2019-05-03T05:08:46.035Z,81.07
2019-05-03T05:11:15.761Z,81.00
2019-05-03T05:13:45.774Z,80.63
2019-05-03T05:16:16.033Z,80.36
2019-05-03T05:18:50.093Z,80.16
2019-05-03T05:21:25.347Z,81.02
2019-05-03T05:24:01.422Z,80.17
2019-05-03T05:26:37.776Z,80.94
2019-05-03T05:29:09.426Z,80.33
2019-05-03T05:31:37.963Z,80.29
2019-05-03T05:34:08.896Z,79.29
2019-05-03T05:36:36.977Z,79.45
2019-05-03T05:39:06.858Z,79.16
2019-05-03T05:41:35.491Z,79.96
2019-05-03T05:44:05.421Z,79.15
2019-05-03T05:46:47.235Z,79.73
2019-05-03T05:49:35.423Z,78.62
2019-05-03T05:52:04.995Z,78.13
2019-05-03T05:54:35.118Z,78.74
2019-05-03T05:57:26.325Z,78.18
2019-05-03T05:59:57.707Z,79.19
2019-05-03T06:02:26.332Z,77.76
2019-05-03T06:04:54.962Z,77.88
2019-05-03T06:07:44.477Z,74.39
2019-05-03T06:10:20.256Z,71.71
2019-05-03T06:13:04.988Z,71.87
2019-05-03T06:15:41.877Z,70.77
2019-05-03T06:18:16.324Z,71.02
2019-05-03T06:20:58.632Z,67.92
2019-05-03T06:23:31.546Z,69.05
2019-05-03T06:26:00.422Z,70.14
2019-05-03T06:28:35.119Z,68.99
2019-05-03T06:31:14.922Z,69.28
2019-05-03T06:33:45.054Z,69.52
2019-05-03T06:36:15.237Z,69.59
2019-05-03T06:38:44.740Z,69.31
2019-05-03T06:41:14.998Z,69.55
2019-05-03T06:43:45.108Z,67.66
2019-05-03T06:46:16.418Z,69.01
2019-05-03T06:48:44.762Z,68.75
2019-05-03T06:51:17.865Z,67.57
2019-05-03T06:53:47.536Z,64.56
2019-05-03T06:56:14.886Z,67.27
2019-05-03T06:58:44.860Z,66.64
2019-05-03T07:01:29.627Z,64.48
2019-05-03T07:04:05.689Z,60.95
2019-05-03T07:06:56.526Z,62.01
2019-05-03T07:09:54.691Z,61.16
2019-05-03T07:12:25.031Z,62.90
2019-05-03T07:14:54.883Z,59.86
2019-05-03T07:17:24.833Z,60.04
2019-05-03T07:19:54.611Z,60.67
2019-05-03T07:22:24.469Z,62.37
2019-05-03T07:24:54.659Z,62.01
2019-05-03T07:27:24.782Z,63.08
2019-05-03T07:29:55.479Z,63.62
2019-05-03T07:32:24.680Z,60.79
2019-05-03T07:34:55.498Z,59.47
2019-05-03T07:37:24.591Z,57.26
2019-05-03T07:39:55.488Z,55.34
2019-05-03T07:42:25.613Z,56.94
2019-05-03T07:44:55.977Z,57.12
2019-05-03T07:47:24.798Z,59.11
2019-05-03T07:49:54.687Z,59.95
2019-05-03T07:52:23.331Z,59.98
2019-05-03T07:54:52.009Z,61.08
2019-05-03T07:57:28.653Z,61.11
2019-05-03T07:59:57.403Z,61.30
2019-05-03T08:02:27.488Z,63.78
2019-05-03T08:04:56.321Z,59.31
2019-05-03T08:07:25.796Z,53.45
2019-05-03T08:09:55.546Z,53.43
2019-05-03T08:12:24.757Z,50.73
2019-05-03T08:14:55.231Z,48.61
2019-05-03T08:17:25.562Z,48.05
2019-05-03T08:19:55.239Z,51.66
2019-05-03T08:22:25.554Z,54.01
2019-05-03T08:24:55.473Z,53.92
2019-05-03T08:27:25.109Z,50.92
2019-05-03T08:29:55.744Z,47.46
2019-05-03T08:32:35.640Z,46.35
2019-05-03T08:35:17.489Z,48.38
2019-05-03T08:37:51.286Z,49.94
2019-05-03T08:40:21.466Z,48.84
2019-05-03T08:42:50.244Z,48.38
2019-05-03T08:45:19.002Z,49.48
2019-05-03T08:47:47.625Z,46.52
2019-05-03T08:50:21.354Z,46.09
2019-05-03T08:52:47.246Z,44.09
2019-05-03T08:55:16.075Z,46.09
2019-05-03T08:57:44.944Z,45.10
2019-05-03T09:00:15.886Z,45.92
2019-05-03T09:02:44.880Z,43.37
2019-05-03T09:05:15.750Z,42.79
2019-05-03T09:07:44.844Z,45.32
2019-05-03T09:10:20.546Z,41.91
2019-05-03T09:13:07.809Z,42.71
2019-05-03T09:15:36.680Z,44.42
2019-05-03T09:18:06.035Z,47.56
2019-05-03T09:20:35.642Z,44.13
2019-05-03T09:23:05.375Z,45.12
2019-05-03T09:25:35.504Z,44.63
2019-05-03T09:28:04.800Z,44.99
2019-05-03T09:30:35.698Z,46.18
2019-05-03T09:33:08.441Z,43.44
2019-05-03T09:35:36.068Z,40.21
2019-05-03T09:38:05.726Z,40.09
2019-05-03T09:40:35.336Z,41.03
2019-05-03T09:43:04.542Z,40.62
2019-05-03T09:45:35.335Z,39.57
2019-05-03T09:48:05.656Z,39.64
2019-05-03T09:50:35.902Z,39.59
2019-05-03T09:53:05.444Z,44.22
2019-05-03T09:55:37.565Z,43.71
2019-05-03T09:58:06.372Z,47.01
2019-05-03T10:00:35.015Z,42.68
2019-05-03T10:03:05.619Z,42.38
2019-05-03T10:05:35.066Z,39.58
2019-05-03T10:08:05.134Z,37.77
2019-05-03T10:10:52.912Z,37.84
2019-05-03T10:13:23.858Z,38.83
2019-05-03T10:15:52.230Z,37.68
2019-05-03T10:18:20.970Z,41.54
2019-05-03T10:20:49.690Z,39.85
2019-05-03T10:23:37.330Z,40.31
2019-05-03T10:26:06.341Z,40.16
2019-05-03T10:28:35.146Z,38.48
2019-05-03T10:31:07.538Z,38.35
2019-05-03T10:33:40.963Z,40.14
2019-05-03T10:36:09.595Z,40.26
2019-05-03T10:38:38.366Z,40.05
2019-05-03T10:41:07.127Z,39.35
2019-05-03T10:43:35.861Z,37.70
2019-05-03T10:46:05.244Z,38.02
2019-05-03T10:48:35.604Z,36.12
2019-05-03T10:51:04.857Z,31.71
2019-05-03T10:53:37.008Z,34.59
2019-05-03T10:56:35.967Z,31.60
2019-05-03T10:59:06.510Z,33.15
2019-05-03T11:02:06.858Z,32.43
2019-05-03T11:04:35.680Z,27.26
2019-05-03T11:07:05.539Z,29.29
2019-05-03T11:09:47.907Z,27.36
2019-05-03T11:12:05.515Z,32.63
2019-05-03T11:14:35.040Z,31.14
2019-05-03T11:17:05.657Z,32.93
2019-05-03T11:19:34.812Z,35.56
2019-05-03T11:22:05.499Z,35.48
2019-05-03T11:24:34.890Z,35.48
2019-05-03T11:27:08.454Z,37.03
2019-05-03T11:29:37.002Z,38.49
2019-05-03T11:32:25.503Z,33.77
2019-05-03T11:35:11.568Z,35.40
2019-05-03T11:37:46.653Z,36.12
2019-05-03T11:40:15.804Z,38.98
2019-05-03T11:42:45.112Z,38.50
2019-05-03T11:45:15.221Z,38.90
2019-05-03T11:47:45.784Z,39.19
2019-05-03T11:50:15.000Z,40.96
2019-05-03T11:52:46.849Z,38.07
2019-05-03T11:55:15.927Z,34.89
2019-05-03T11:57:45.142Z,34.29
2019-05-03T12:00:18.928Z,36.37
2019-05-03T12:03:15.841Z,37.22
2019-05-03T12:05:47.670Z,35.65
2019-05-03T12:08:16.292Z,37.48
2019-05-03T12:10:55.355Z,38.10
2019-05-03T12:13:24.772Z,36.37
2019-05-03T12:15:55.130Z,35.77
2019-05-03T12:18:25.180Z,34.36
2019-05-03T12:20:57.070Z,34.59
2019-05-03T12:23:26.094Z,33.14
2019-05-03T12:25:55.759Z,35.15
2019-05-03T12:28:25.689Z,39.05
2019-05-03T12:30:54.609Z,41.00
2019-05-03T12:33:25.831Z,39.27
2019-05-03T12:35:55.237Z,39.13
2019-05-03T12:38:25.556Z,39.14
2019-05-03T12:40:54.707Z,40.94
2019-05-03T12:43:25.477Z,41.32
2019-05-03T12:45:54.120Z,41.89
2019-05-03T12:48:24.646Z,37.41
2019-05-03T12:50:53.651Z,34.79
2019-05-03T12:53:24.572Z,34.88
2019-05-03T12:55:52.998Z,36.51
2019-05-03T12:58:25.355Z,39.46
2019-05-03T13:01:11.558Z,38.32
2019-05-03T13:03:59.755Z,38.69
2019-05-03T13:06:30.438Z,37.06
2019-05-03T13:08:59.081Z,36.26
2019-05-03T13:11:28.120Z,38.31
2019-05-03T13:13:56.672Z,38.84
2019-05-03T13:16:25.208Z,38.41
2019-05-03T13:18:55.300Z,37.59
2019-05-03T13:21:25.262Z,40.33
2019-05-03T13:23:54.784Z,40.60
2019-05-03T13:26:25.406Z,40.69
2019-05-03T13:28:55.279Z,40.48
2019-05-03T13:31:25.096Z,39.25
2019-05-03T13:33:54.928Z,35.87
2019-05-03T13:36:25.317Z,33.98
2019-05-03T13:38:58.684Z,30.35
2019-05-03T13:41:25.074Z,31.74
2019-05-03T13:43:54.857Z,33.07
2019-05-03T13:46:24.632Z,35.30
2019-05-03T13:48:55.498Z,35.29
2019-05-03T13:51:25.352Z,37.60
2019-05-03T13:53:55.033Z,36.30
2019-05-03T13:56:24.666Z,38.88
2019-05-03T13:58:55.143Z,38.49
2019-05-03T14:01:25.220Z,40.73
2019-05-03T14:03:54.581Z,41.61
2019-05-03T14:06:24.612Z,41.21
2019-05-03T14:08:54.801Z,39.25
2019-05-03T14:11:25.379Z,37.29
2019-05-03T14:13:55.274Z,36.36
2019-05-03T14:16:23.993Z,36.55
2019-05-03T14:18:56.005Z,36.52
2019-05-03T14:21:30.880Z,37.71
2019-05-03T14:24:08.591Z,37.36
2019-05-03T14:26:38.351Z,37.18
2019-05-03T14:29:07.348Z,37.89
2019-05-03T14:31:36.060Z,35.90
2019-05-03T14:34:06.022Z,38.48
2019-05-03T14:36:35.844Z,36.96
2019-05-03T14:39:09.673Z,38.23
2019-05-03T14:41:37.667Z,37.42
2019-05-03T14:44:06.335Z,38.80
2019-05-03T14:46:36.133Z,40.42
2019-05-03T14:49:05.603Z,38.93
2019-05-03T14:51:34.923Z,40.25
2019-05-03T14:54:05.535Z,40.32
2019-05-03T14:56:41.203Z,38.56
2019-05-03T14:59:28.035Z,39.62
2019-05-03T15:02:16.465Z,39.35
2019-05-03T15:04:44.986Z,40.51
2019-05-03T15:07:15.356Z,41.70
2019-05-03T15:09:45.782Z,40.84
2019-05-03T15:12:14.788Z,40.81
2019-05-03T15:14:45.146Z,40.92
2019-05-03T15:17:13.959Z,41.42
2019-05-03T15:19:42.524Z,40.12
2019-05-03T15:22:11.163Z,41.86
2019-05-03T15:24:39.828Z,41.40
2019-05-03T15:27:08.478Z,41.66
2019-05-03T15:29:37.020Z,42.60
2019-05-03T15:32:05.656Z,41.55
2019-05-03T15:34:35.371Z,41.92
2019-05-03T15:37:05.494Z,41.73
2019-05-03T15:39:34.619Z,42.34
2019-05-03T15:42:05.309Z,42.34
2019-05-03T15:44:59.545Z,42.96
2019-05-03T15:47:32.365Z,43.07
2019-05-03T15:50:01.220Z,43.83
2019-05-03T15:52:29.852Z,42.64
2019-05-03T15:54:58.475Z,43.35
2019-05-03T15:57:26.992Z,43.78
2019-05-03T15:59:55.554Z,44.28
2019-05-03T16:02:24.671Z,44.16
2019-05-03T16:04:55.696Z,44.45
2019-05-03T16:07:24.982Z,44.47
2019-05-03T16:09:55.295Z,44.94
2019-05-03T16:12:24.006Z,45.04
2019-05-03T16:14:52.764Z,45.74
2019-05-03T16:17:21.484Z,45.98
2019-05-03T16:19:50.113Z,45.61
2019-05-03T16:22:18.650Z,45.33
2019-05-03T16:24:47.282Z,46.37
2019-05-03T16:27:24.875Z,46.66
2019-05-03T16:29:54.925Z,48.00
2019-05-03T16:32:23.731Z,48.59
2019-05-03T16:34:52.477Z,48.09
2019-05-03T16:37:21.117Z,47.82
2019-05-03T16:39:50.198Z,48.44
2019-05-03T16:42:18.957Z,49.05
2019-05-03T16:44:47.647Z,49.18
2019-05-03T16:47:16.281Z,48.90
2019-05-03T16:49:44.957Z,49.63
2019-05-03T16:52:14.753Z,48.87
2019-05-03T16:54:45.363Z,48.48
2019-05-03T16:57:14.845Z,48.76
2019-05-03T16:59:44.588Z,49.13
2019-05-03T17:02:14.670Z,48.82
2019-05-03T17:04:49.755Z,48.99
2019-05-03T17:07:35.410Z,49.09
2019-05-03T17:10:27.630Z,49.52
2019-05-03T17:12:56.976Z,49.63
2019-05-03T17:15:25.865Z,49.92
2019-05-03T17:17:54.430Z,50.60
2019-05-03T17:20:23.046Z,50.70
2019-05-03T17:22:51.779Z,49.49
2019-05-03T17:25:20.327Z,49.71
2019-05-03T17:27:48.864Z,49.60
2019-05-03T17:30:17.669Z,50.22
2019-05-03T17:32:46.418Z,49.79
2019-05-03T17:35:15.177Z,50.76
2019-05-03T17:37:45.189Z,50.20
2019-05-03T17:40:34.882Z,51.39
2019-05-03T17:43:14.805Z,51.19
2019-05-03T17:45:46.926Z,51.18
2019-05-03T17:48:15.832Z,51.50
2019-05-03T17:50:45.416Z,52.15
2019-05-03T17:53:45.474Z,52.35
2019-05-03T17:56:18.229Z,51.76
2019-05-03T17:58:55.015Z,51.91
2019-05-03T18:01:41.962Z,51.97
2019-05-03T18:04:20.475Z,52.10
2019-05-03T18:07:00.424Z,52.58
2019-05-03T18:09:32.120Z,52.13
2019-05-03T18:12:04.580Z,52.32
2019-05-03T18:14:34.458Z,52.77
2019-05-03T18:17:05.508Z,53.35
2019-05-03T18:19:34.307Z,52.18
2019-05-03T18:22:05.018Z,52.78
2019-05-03T18:24:35.223Z,53.28
2019-05-03T18:27:04.579Z,53.46
2019-05-03T18:29:34.554Z,53.58
2019-05-03T18:32:05.335Z,54.29
2019-05-03T18:34:34.184Z,54.44
2019-05-03T18:37:04.814Z,55.00
2019-05-03T18:39:34.687Z,54.63
2019-05-03T18:42:05.773Z,54.89
2019-05-03T18:44:50.170Z,55.14
2019-05-03T18:47:22.907Z,55.04
2019-05-03T18:49:51.536Z,55.36
2019-05-03T18:52:20.176Z,56.22
2019-05-03T18:54:48.835Z,56.18
2019-05-03T18:57:17.457Z,57.26
2019-05-03T18:59:46.106Z,56.14
2019-05-03T19:02:15.044Z,57.10
2019-05-03T19:04:48.574Z,57.13
2019-05-03T19:07:29.086Z,56.83
2019-05-03T19:10:11.325Z,56.63
2019-05-03T19:12:48.131Z,57.10
2019-05-03T19:15:17.068Z,57.24
2019-05-03T19:17:54.759Z,57.50
2019-05-03T19:20:24.658Z,57.21
2019-05-03T19:22:54.381Z,57.43
2019-05-03T19:25:25.338Z,57.76
2019-05-03T19:27:54.558Z,58.21
2019-05-03T19:30:24.483Z,57.43
2019-05-03T19:32:55.077Z,57.21
2019-05-03T19:35:24.983Z,57.08
2019-05-03T19:37:55.491Z,57.85
2019-05-03T19:40:25.606Z,58.10
2019-05-03T19:42:55.204Z,58.47
2019-05-03T19:45:24.863Z,58.13
2019-05-03T19:47:55.211Z,58.25
2019-05-03T19:50:26.968Z,59.01
2019-05-03T19:53:02.679Z,58.17
2019-05-03T19:55:31.319Z,58.46
2019-05-03T19:58:00.068Z,57.87
2019-05-03T20:00:38.297Z,59.54
2019-05-03T20:03:12.479Z,59.08
2019-05-03T20:06:06.496Z,59.98
2019-05-03T20:08:38.358Z,59.67
2019-05-03T20:11:14.872Z,61.40
2019-05-03T20:13:45.176Z,61.99
2019-05-03T20:16:15.372Z,63.41
2019-05-03T20:18:45.366Z,62.75
2019-05-03T20:21:15.011Z,66.02
2019-05-03T20:23:44.726Z,65.68
2019-05-03T20:26:15.069Z,66.60
2019-05-03T20:28:44.964Z,66.28
2019-05-03T20:31:13.940Z,67.30
2019-05-03T20:33:42.857Z,67.20
2019-05-03T20:36:11.571Z,69.31
2019-05-03T20:38:40.423Z,69.81
2019-05-03T20:41:09.314Z,70.93
2019-05-03T20:43:48.367Z,71.44
2019-05-03T20:46:20.637Z,70.80
2019-05-03T20:48:51.710Z,71.57
2019-05-03T20:51:20.493Z,71.88
2019-05-03T20:53:49.226Z,72.07
2019-05-03T20:56:17.805Z,73.08
2019-05-03T20:58:46.578Z,73.99
2019-05-03T21:01:15.424Z,75.35
2019-05-03T21:03:44.942Z,75.88
2019-05-03T21:06:15.235Z,75.64
2019-05-03T21:08:52.994Z,76.12
2019-05-03T21:11:14.909Z,76.64
2019-05-03T21:13:45.012Z,76.28
2019-05-03T21:16:39.190Z,78.37
2019-05-03T21:19:27.582Z,78.39
2019-05-03T21:22:07.732Z,79.61
2019-05-03T21:24:47.926Z,80.53
2019-05-03T21:27:16.714Z,80.53
2019-05-03T21:29:51.590Z,81.52
2019-05-03T21:32:20.572Z,81.72
2019-05-03T21:34:49.199Z,81.85
2019-05-03T21:37:17.893Z,81.18
2019-05-03T21:39:46.647Z,80.78
2019-05-03T21:42:15.564Z,82.25
2019-05-03T21:44:44.817Z,81.62
2019-05-03T21:47:24.636Z,80.72
2019-05-03T21:49:53.618Z,82.70
2019-05-03T21:52:22.275Z,82.20
2019-05-03T21:54:50.903Z,82.66
2019-05-03T21:57:19.734Z,84.07
2019-05-03T21:59:48.482Z,83.45
2019-05-03T22:02:17.183Z,83.47
2019-05-03T22:04:45.792Z,84.46
2019-05-03T22:07:14.971Z,84.66
2019-05-03T22:09:45.290Z,85.46
2019-05-03T22:12:14.503Z,84.22
2019-05-03T22:14:54.498Z,84.53
2019-05-03T22:17:41.603Z,84.81
2019-05-03T22:20:24.589Z,85.42
2019-05-03T22:22:59.801Z,86.06
2019-05-03T22:25:30.715Z,85.71
2019-05-03T22:27:59.472Z,85.01
2019-05-03T22:30:28.092Z,85.30
2019-05-03T22:32:56.777Z,85.90
2019-05-03T22:35:25.517Z,85.33
2019-05-03T22:37:55.086Z,85.96
2019-05-03T22:40:25.117Z,86.54
2019-05-03T22:42:54.131Z,85.91
2019-05-03T22:45:22.756Z,87.12
2019-05-03T22:47:51.511Z,86.41
2019-05-03T22:50:20.247Z,88.27
2019-05-03T22:52:48.773Z,88.04
2019-05-03T22:55:17.293Z,88.99
2019-05-03T22:57:46.137Z,87.56
2019-05-03T23:00:14.922Z,87.83
2019-05-03T23:02:45.513Z,88.28
2019-05-03T23:05:14.577Z,87.68
2019-05-03T23:07:44.241Z,87.68
2019-05-03T23:10:14.776Z,88.27
2019-05-03T23:12:45.207Z,88.38
2019-05-03T23:15:15.086Z,88.98
2019-05-03T23:17:45.137Z,89.51
2019-05-03T23:20:25.474Z,89.70
2019-05-03T23:22:54.795Z,90.37
2019-05-03T23:25:25.031Z,90.45
2019-05-03T23:27:55.151Z,90.39
2019-05-03T23:30:24.795Z,90.19
2019-05-03T23:32:54.719Z,90.29
2019-05-03T23:35:24.662Z,89.39
2019-05-03T23:37:54.365Z,89.91
2019-05-03T23:40:23.110Z,90.76
2019-05-03T23:42:51.644Z,90.52
2019-05-03T23:45:20.289Z,90.99
2019-05-03T23:47:49.095Z,91.34
2019-05-03T23:50:19.254Z,91.48
2019-05-03T23:52:47.993Z,90.87
2019-05-03T23:55:34.692Z,91.15
2019-05-03T23:58:04.844Z,91.13
